JST857 YPPH-YPAD
Flight info
| Callsign | JST857 |
|---|---|
| Flight time | N/A |
| Altitude | 37000 |
| Route | HECTO5/21 HECTO Y135 DADRU Y39 ATNAR |
| Aircraft | A320/M-SDE3FGHIRWY/LB1 |
Departure
| Time | 2026-05-06 10:27 |
|---|---|
| Airport | Perth International Airport (YPPH) |
Arrival
| Time | N/A |
|---|---|
| Airport | Adelaide International Airport (YPAD) |
| Time | Latitude | Longitude | Altitude | Speed | Heading |
|---|---|---|---|---|---|
| 2026-05-06 09:52 | -31.94420 | 115.97059 | 68 ft | 0 kts | 114° |
| 2026-05-06 10:14 | -31.94413 | 115.97039 | 82 ft | 4 kts | 114° |
| 2026-05-06 10:15 | -31.94401 | 115.97012 | 80 ft | 4 kts | 135° |
| 2026-05-06 10:15 | -31.94384 | 115.97002 | 85 ft | 3 kts | 186° |
| 2026-05-06 10:15 | -31.94357 | 115.97007 | 84 ft | 4 kts | 194° |
| 2026-05-06 10:15 | -31.94339 | 115.97012 | 85 ft | 0 kts | 194° |
| 2026-05-06 10:18 | -31.94344 | 115.97011 | 82 ft | 3 kts | 194° |
| 2026-05-06 10:19 | -31.94368 | 115.96994 | 81 ft | 5 kts | 231° |
| 2026-05-06 10:19 | -31.94370 | 115.96946 | 83 ft | 7 kts | 282° |
| 2026-05-06 10:19 | -31.94357 | 115.96882 | 88 ft | 9 kts | 284° |
| 2026-05-06 10:19 | -31.94340 | 115.96802 | 85 ft | 11 kts | 286° |
| 2026-05-06 10:20 | -31.94274 | 115.96785 | 87 ft | 12 kts | 15° |
| 2026-05-06 10:20 | -31.94186 | 115.96811 | 83 ft | 14 kts | 13° |
| 2026-05-06 10:20 | -31.94081 | 115.96842 | 83 ft | 17 kts | 14° |
| 2026-05-06 10:20 | -31.93961 | 115.96877 | 82 ft | 19 kts | 13° |
| 2026-05-06 10:21 | -31.93826 | 115.96916 | 87 ft | 21 kts | 14° |
| 2026-05-06 10:21 | -31.93678 | 115.96960 | 81 ft | 23 kts | 14° |
| 2026-05-06 10:21 | -31.93517 | 115.97006 | 82 ft | 25 kts | 14° |
| 2026-05-06 10:21 | -31.93345 | 115.97056 | 79 ft | 26 kts | 14° |
| 2026-05-06 10:22 | -31.93161 | 115.97109 | 81 ft | 26 kts | 13° |
| 2026-05-06 10:22 | -31.93023 | 115.97150 | 79 ft | 15 kts | 14° |
| 2026-05-06 10:22 | -31.92946 | 115.97143 | 79 ft | 12 kts | 311° |
| 2026-05-06 10:22 | -31.92929 | 115.97075 | 78 ft | 0 kts | 284° |
| 2026-05-06 10:26 | -31.92920 | 115.97035 | 74 ft | 9 kts | 284° |
| 2026-05-06 10:26 | -31.92898 | 115.96933 | 77 ft | 16 kts | 284° |
| 2026-05-06 10:26 | -31.92899 | 115.96836 | 75 ft | 11 kts | 218° |
| 2026-05-06 10:26 | -31.92991 | 115.96808 | 77 ft | 20 kts | 194° |
| 2026-05-06 10:27 | -31.93357 | 115.96704 | 75 ft | 87 kts | 194° |
| 2026-05-06 10:27 | -31.94131 | 115.96478 | 91 ft | 139 kts | 194° |
| 2026-05-06 10:27 | -31.95203 | 115.96167 | 223 ft | 168 kts | 188° |
| 2026-05-06 10:27 | -31.96322 | 115.95840 | 820 ft | 166 kts | 190° |
| 2026-05-06 10:28 | -31.97450 | 115.95514 | 1454 ft | 168 kts | 190° |
| 2026-05-06 10:28 | -31.98605 | 115.95179 | 1917 ft | 179 kts | 187° |
| 2026-05-06 10:28 | -31.99887 | 115.94818 | 2205 ft | 199 kts | 188° |
| 2026-05-06 10:28 | -32.01285 | 115.94458 | 2507 ft | 216 kts | 182° |
| 2026-05-06 10:29 | -32.02773 | 115.94786 | 2885 ft | 221 kts | 144° |
| 2026-05-06 10:29 | -32.03778 | 115.96195 | 3222 ft | 236 kts | 110° |
| 2026-05-06 10:29 | -32.04277 | 115.98060 | 3840 ft | 247 kts | 101° |
| 2026-05-06 10:29 | -32.04626 | 116.00071 | 4662 ft | 253 kts | 100° |
| 2026-05-06 10:30 | -32.04968 | 116.02131 | 5450 ft | 261 kts | 102° |
| 2026-05-06 10:30 | -32.05354 | 116.04245 | 6246 ft | 265 kts | 104° |
| 2026-05-06 10:30 | -32.05787 | 116.06368 | 7117 ft | 268 kts | 105° |
| 2026-05-06 10:30 | -32.06396 | 116.08450 | 7941 ft | 269 kts | 116° |
| 2026-05-06 10:31 | -32.07193 | 116.10452 | 8796 ft | 271 kts | 117° |
| 2026-05-06 10:31 | -32.08009 | 116.12472 | 9567 ft | 275 kts | 116° |
| 2026-05-06 10:31 | -32.08843 | 116.14526 | 10342 ft | 279 kts | 117° |
| 2026-05-06 10:31 | -32.09697 | 116.16626 | 10846 ft | 293 kts | 117° |
| 2026-05-06 10:32 | -32.10614 | 116.18875 | 11033 ft | 316 kts | 117° |
| 2026-05-06 10:32 | -32.11588 | 116.21266 | 11442 ft | 328 kts | 117° |
| 2026-05-06 10:32 | -32.12585 | 116.23730 | 12007 ft | 335 kts | 117° |
| 2026-05-06 10:32 | -32.13590 | 116.26225 | 12698 ft | 338 kts | 117° |
| 2026-05-06 10:33 | -32.14606 | 116.28755 | 13308 ft | 343 kts | 117° |
| 2026-05-06 10:33 | -32.15638 | 116.31317 | 13954 ft | 347 kts | 117° |
| 2026-05-06 10:33 | -32.16679 | 116.33903 | 14555 ft | 351 kts | 117° |
| 2026-05-06 10:33 | -32.17732 | 116.36516 | 15121 ft | 354 kts | 117° |
| 2026-05-06 10:34 | -32.18794 | 116.39156 | 15694 ft | 357 kts | 117° |
| 2026-05-06 10:34 | -32.19853 | 116.41789 | 16236 ft | 361 kts | 117° |
| 2026-05-06 10:34 | -32.20936 | 116.44476 | 16784 ft | 364 kts | 117° |
| 2026-05-06 10:34 | -32.22177 | 116.47084 | 17324 ft | 366 kts | 124° |
| 2026-05-06 10:35 | -32.23539 | 116.49643 | 17872 ft | 369 kts | 124° |
| 2026-05-06 10:35 | -32.24916 | 116.52235 | 18434 ft | 372 kts | 124° |
| 2026-05-06 10:35 | -32.26298 | 116.54839 | 18962 ft | 376 kts | 124° |
| 2026-05-06 10:35 | -32.27690 | 116.57471 | 19458 ft | 379 kts | 124° |
| 2026-05-06 10:36 | -32.29091 | 116.60127 | 19944 ft | 383 kts | 124° |
| 2026-05-06 10:36 | -32.30504 | 116.62806 | 20448 ft | 385 kts | 124° |
| 2026-05-06 10:36 | -32.31927 | 116.65504 | 20943 ft | 388 kts | 124° |
| 2026-05-06 10:36 | -32.33365 | 116.68228 | 21420 ft | 391 kts | 124° |
| 2026-05-06 10:37 | -32.34812 | 116.70969 | 21886 ft | 394 kts | 124° |
| 2026-05-06 10:37 | -32.36267 | 116.73733 | 22346 ft | 397 kts | 124° |
| 2026-05-06 10:37 | -32.37731 | 116.76517 | 22795 ft | 400 kts | 124° |
| 2026-05-06 10:37 | -32.39204 | 116.79321 | 23238 ft | 402 kts | 123° |
| 2026-05-06 10:38 | -32.40668 | 116.82110 | 23675 ft | 405 kts | 123° |
| 2026-05-06 10:38 | -32.42161 | 116.84953 | 24105 ft | 408 kts | 123° |
| 2026-05-06 10:38 | -32.43663 | 116.87816 | 24475 ft | 410 kts | 123° |
| 2026-05-06 10:38 | -32.45173 | 116.90694 | 24845 ft | 413 kts | 123° |
| 2026-05-06 10:39 | -32.46693 | 116.93588 | 25212 ft | 415 kts | 123° |
| 2026-05-06 10:39 | -32.47724 | 116.95552 | 25459 ft | 416 kts | 123° |
| 2026-05-06 10:39 | -32.49237 | 116.98437 | 25825 ft | 419 kts | 123° |
| 2026-05-06 10:39 | -32.50773 | 117.01377 | 26179 ft | 421 kts | 123° |
| 2026-05-06 10:40 | -32.52317 | 117.04336 | 26531 ft | 423 kts | 123° |
| 2026-05-06 10:40 | -32.53772 | 117.07373 | 26874 ft | 427 kts | 116° |
| 2026-05-06 10:40 | -32.54841 | 117.10669 | 27217 ft | 430 kts | 110° |
| 2026-05-06 10:40 | -32.55779 | 117.14045 | 27565 ft | 433 kts | 110° |
| 2026-05-06 10:41 | -32.56726 | 117.17444 | 27921 ft | 435 kts | 110° |
| 2026-05-06 10:41 | -32.57680 | 117.20857 | 28264 ft | 437 kts | 110° |
| 2026-05-06 10:41 | -32.58638 | 117.24295 | 28604 ft | 440 kts | 110° |
| 2026-05-06 10:41 | -32.59598 | 117.27745 | 28951 ft | 442 kts | 110° |
| 2026-05-06 10:42 | -32.60565 | 117.31222 | 29296 ft | 444 kts | 110° |
| 2026-05-06 10:42 | -32.61536 | 117.34712 | 29647 ft | 446 kts | 110° |
| 2026-05-06 10:42 | -32.62509 | 117.38211 | 30004 ft | 448 kts | 110° |
| 2026-05-06 10:42 | -32.63482 | 117.41721 | 30472 ft | 447 kts | 110° |
| 2026-05-06 10:43 | -32.64447 | 117.45220 | 30905 ft | 445 kts | 110° |
| 2026-05-06 10:43 | -32.65405 | 117.48705 | 31331 ft | 444 kts | 110° |
| 2026-05-06 10:43 | -32.66365 | 117.52191 | 31721 ft | 444 kts | 110° |
| 2026-05-06 10:44 | -32.68274 | 117.59138 | 32548 ft | 442 kts | 110° |
| 2026-05-06 10:44 | -32.69224 | 117.62604 | 32971 ft | 440 kts | 110° |
| 2026-05-06 10:44 | -32.70172 | 117.66055 | 33399 ft | 439 kts | 110° |
| 2026-05-06 10:44 | -32.71117 | 117.69500 | 33818 ft | 438 kts | 110° |
| 2026-05-06 10:45 | -32.72049 | 117.72896 | 34243 ft | 437 kts | 110° |
| 2026-05-06 10:45 | -32.72990 | 117.76327 | 34638 ft | 436 kts | 110° |
| 2026-05-06 10:45 | -32.73927 | 117.79753 | 34969 ft | 435 kts | 110° |
| 2026-05-06 10:45 | -32.74862 | 117.83171 | 35275 ft | 435 kts | 110° |
| 2026-05-06 10:46 | -32.75797 | 117.86592 | 35563 ft | 436 kts | 110° |
| 2026-05-06 10:46 | -32.76730 | 117.90018 | 35848 ft | 436 kts | 110° |
| 2026-05-06 10:46 | -32.77660 | 117.93450 | 36116 ft | 436 kts | 110° |
| 2026-05-06 10:46 | -32.78589 | 117.96882 | 36398 ft | 436 kts | 110° |
| 2026-05-06 10:47 | -32.79519 | 118.00320 | 36670 ft | 436 kts | 110° |
| 2026-05-06 10:47 | -32.80446 | 118.03750 | 36931 ft | 436 kts | 110° |
| 2026-05-06 10:47 | -32.81361 | 118.07145 | 37185 ft | 436 kts | 110° |
| 2026-05-06 10:47 | -32.82289 | 118.10580 | 37413 ft | 437 kts | 110° |
| 2026-05-06 10:48 | -32.83222 | 118.14035 | 37493 ft | 440 kts | 110° |
| 2026-05-06 10:48 | -32.85115 | 118.21032 | 37495 ft | 447 kts | 110° |
| 2026-05-06 10:49 | -32.87008 | 118.28085 | 37498 ft | 447 kts | 110° |
| 2026-05-06 10:49 | -32.88895 | 118.35127 | 37495 ft | 447 kts | 110° |
| 2026-05-06 10:50 | -32.90786 | 118.42175 | 37495 ft | 447 kts | 110° |
| 2026-05-06 10:50 | -32.92657 | 118.49202 | 37498 ft | 448 kts | 110° |
| 2026-05-06 10:51 | -32.94535 | 118.56272 | 37505 ft | 448 kts | 110° |
| 2026-05-06 10:51 | -32.96391 | 118.63369 | 37511 ft | 449 kts | 107° |
| 2026-05-06 10:52 | -32.97136 | 118.70774 | 37516 ft | 453 kts | 94° |
| 2026-05-06 10:52 | -32.97317 | 118.78282 | 37522 ft | 454 kts | 94° |
| 2026-05-06 10:53 | -32.97500 | 118.85791 | 37523 ft | 453 kts | 94° |
| 2026-05-06 10:53 | -32.97685 | 118.93288 | 37522 ft | 453 kts | 94° |
| 2026-05-06 10:54 | -32.97862 | 119.00792 | 37524 ft | 453 kts | 94° |
| 2026-05-06 10:54 | -32.98037 | 119.08296 | 37520 ft | 453 kts | 94° |
| 2026-05-06 10:55 | -32.98210 | 119.15754 | 37521 ft | 453 kts | 94° |
| 2026-05-06 10:55 | -32.98380 | 119.23314 | 37518 ft | 453 kts | 94° |
| 2026-05-06 10:56 | -32.98538 | 119.30777 | 37518 ft | 454 kts | 94° |
| 2026-05-06 10:56 | -32.98689 | 119.38288 | 37518 ft | 454 kts | 94° |
| 2026-05-06 10:57 | -32.98849 | 119.45815 | 37518 ft | 454 kts | 94° |
| 2026-05-06 10:57 | -32.98991 | 119.53335 | 37519 ft | 454 kts | 93° |
| 2026-05-06 10:58 | -32.99136 | 119.60853 | 37523 ft | 454 kts | 94° |
| 2026-05-06 10:58 | -32.99281 | 119.68381 | 37523 ft | 454 kts | 94° |
| 2026-05-06 10:59 | -32.99415 | 119.75894 | 37522 ft | 454 kts | 93° |
| 2026-05-06 10:59 | -32.99528 | 119.83416 | 37526 ft | 454 kts | 93° |
| 2026-05-06 11:00 | -32.99648 | 119.90928 | 37522 ft | 454 kts | 93° |
| 2026-05-06 11:00 | -32.99778 | 119.98444 | 37521 ft | 454 kts | 93° |
| 2026-05-06 11:01 | -32.99901 | 120.05971 | 37520 ft | 454 kts | 93° |
| 2026-05-06 11:01 | -33.00013 | 120.13496 | 37521 ft | 454 kts | 93° |
| 2026-05-06 11:02 | -33.00121 | 120.20973 | 37522 ft | 455 kts | 93° |
| 2026-05-06 11:02 | -33.00223 | 120.28516 | 37524 ft | 455 kts | 93° |
| 2026-05-06 11:03 | -33.00316 | 120.36057 | 37525 ft | 455 kts | 93° |
| 2026-05-06 11:03 | -33.00411 | 120.43602 | 37526 ft | 455 kts | 93° |
| 2026-05-06 11:04 | -33.00547 | 120.51133 | 37532 ft | 454 kts | 98° |
| 2026-05-06 11:04 | -33.01565 | 120.58515 | 37527 ft | 451 kts | 103° |
| 2026-05-06 11:05 | -33.02674 | 120.65885 | 37522 ft | 451 kts | 102° |
| 2026-05-06 11:05 | -33.03771 | 120.73250 | 37518 ft | 451 kts | 102° |
| 2026-05-06 11:06 | -33.04865 | 120.80572 | 37518 ft | 451 kts | 102° |
| 2026-05-06 11:06 | -33.05956 | 120.87937 | 37523 ft | 451 kts | 102° |
| 2026-05-06 11:07 | -33.07044 | 120.95312 | 37520 ft | 451 kts | 102° |
| 2026-05-06 11:07 | -33.08131 | 121.02682 | 37515 ft | 451 kts | 102° |
| 2026-05-06 11:08 | -33.09205 | 121.10051 | 37518 ft | 451 kts | 102° |
| 2026-05-06 11:08 | -33.10281 | 121.17434 | 37518 ft | 451 kts | 102° |
| 2026-05-06 11:09 | -33.11347 | 121.24748 | 37515 ft | 451 kts | 102° |
| 2026-05-06 11:09 | -33.12422 | 121.32122 | 37511 ft | 451 kts | 102° |
| 2026-05-06 11:10 | -33.13484 | 121.39503 | 37515 ft | 451 kts | 102° |
| 2026-05-06 11:10 | -33.14543 | 121.46892 | 37510 ft | 451 kts | 102° |
| 2026-05-06 11:11 | -33.15596 | 121.54290 | 37515 ft | 452 kts | 102° |
| 2026-05-06 11:11 | -33.16644 | 121.61677 | 37520 ft | 452 kts | 102° |
| 2026-05-06 11:12 | -33.17687 | 121.69024 | 37518 ft | 451 kts | 102° |
| 2026-05-06 11:12 | -33.18732 | 121.76412 | 37517 ft | 451 kts | 102° |
| 2026-05-06 11:13 | -33.19770 | 121.83805 | 37519 ft | 451 kts | 102° |
| 2026-05-06 11:13 | -33.20924 | 121.91169 | 37515 ft | 450 kts | 104° |
| 2026-05-06 11:14 | -33.22261 | 121.98473 | 37513 ft | 450 kts | 105° |
| 2026-05-06 11:14 | -33.23582 | 122.05729 | 37507 ft | 450 kts | 104° |
| 2026-05-06 11:15 | -33.24858 | 122.13048 | 37516 ft | 450 kts | 104° |
| 2026-05-06 11:15 | -33.26116 | 122.20370 | 37512 ft | 450 kts | 104° |
| 2026-05-06 11:16 | -33.27375 | 122.27700 | 37511 ft | 450 kts | 104° |
| 2026-05-06 11:16 | -33.28638 | 122.35026 | 37519 ft | 450 kts | 104° |
| 2026-05-06 11:17 | -33.29886 | 122.42347 | 37511 ft | 450 kts | 104° |
| 2026-05-06 11:17 | -33.30755 | 122.47457 | 37503 ft | 449 kts | 104° |
| 2026-05-06 11:18 | -33.32005 | 122.54776 | 37503 ft | 449 kts | 104° |
| 2026-05-06 11:18 | -33.33253 | 122.62103 | 37507 ft | 449 kts | 104° |
| 2026-05-06 11:19 | -33.34469 | 122.69383 | 37504 ft | 449 kts | 104° |
| 2026-05-06 11:19 | -33.35698 | 122.76710 | 37502 ft | 449 kts | 104° |
| 2026-05-06 11:20 | -33.36932 | 122.84039 | 37500 ft | 449 kts | 104° |
| 2026-05-06 11:20 | -33.38153 | 122.91364 | 37507 ft | 449 kts | 104° |
| 2026-05-06 11:21 | -33.39364 | 122.98690 | 37501 ft | 449 kts | 104° |
| 2026-05-06 11:21 | -33.40575 | 123.05979 | 37502 ft | 449 kts | 104° |
| 2026-05-06 11:22 | -33.41783 | 123.13313 | 37503 ft | 449 kts | 104° |
| 2026-05-06 11:22 | -33.42984 | 123.20639 | 37506 ft | 449 kts | 104° |
| 2026-05-06 11:23 | -33.44185 | 123.27966 | 37503 ft | 448 kts | 104° |
| 2026-05-06 11:23 | -33.45384 | 123.35295 | 37496 ft | 448 kts | 104° |
| 2026-05-06 11:24 | -33.46568 | 123.42626 | 37490 ft | 448 kts | 103° |
| 2026-05-06 11:24 | -33.47749 | 123.49954 | 37487 ft | 448 kts | 103° |
| 2026-05-06 11:25 | -33.48940 | 123.57294 | 37491 ft | 449 kts | 104° |
| 2026-05-06 11:25 | -33.50126 | 123.64642 | 37496 ft | 449 kts | 103° |
| 2026-05-06 11:26 | -33.51296 | 123.71944 | 37491 ft | 448 kts | 103° |
| 2026-05-06 11:26 | -33.52459 | 123.79295 | 37483 ft | 449 kts | 103° |
| 2026-05-06 11:27 | -33.53615 | 123.86642 | 37488 ft | 449 kts | 103° |
| 2026-05-06 11:27 | -33.54773 | 123.93989 | 37479 ft | 449 kts | 103° |
| 2026-05-06 11:28 | -33.55936 | 124.01348 | 37487 ft | 449 kts | 103° |
| 2026-05-06 11:28 | -33.57094 | 124.08696 | 37481 ft | 448 kts | 103° |
| 2026-05-06 11:29 | -33.58233 | 124.16003 | 37473 ft | 448 kts | 103° |
| 2026-05-06 11:29 | -33.59181 | 124.22120 | 37477 ft | 448 kts | 103° |
| 2026-05-06 11:30 | -33.60318 | 124.29476 | 37477 ft | 448 kts | 103° |
| 2026-05-06 11:30 | -33.61448 | 124.36827 | 37480 ft | 448 kts | 103° |
| 2026-05-06 11:31 | -33.62587 | 124.44170 | 37473 ft | 448 kts | 103° |
| 2026-05-06 11:31 | -33.63714 | 124.51527 | 37480 ft | 448 kts | 103° |
| 2026-05-06 11:32 | -33.64830 | 124.58888 | 37474 ft | 448 kts | 103° |
| 2026-05-06 11:32 | -33.65946 | 124.66250 | 37469 ft | 448 kts | 103° |
| 2026-05-06 11:33 | -33.67054 | 124.73612 | 37477 ft | 448 kts | 103° |
| 2026-05-06 11:33 | -33.68154 | 124.80927 | 37474 ft | 448 kts | 103° |
| 2026-05-06 11:34 | -33.69262 | 124.88300 | 37469 ft | 448 kts | 103° |
| 2026-05-06 11:34 | -33.70362 | 124.95673 | 37472 ft | 448 kts | 103° |
| 2026-05-06 11:35 | -33.71456 | 125.03053 | 37480 ft | 449 kts | 102° |
| 2026-05-06 11:35 | -33.72546 | 125.10427 | 37471 ft | 448 kts | 103° |
| 2026-05-06 11:36 | -33.73630 | 125.17772 | 37470 ft | 448 kts | 102° |
| 2026-05-06 11:36 | -33.74718 | 125.25149 | 37473 ft | 448 kts | 102° |
| 2026-05-06 11:37 | -33.75791 | 125.32532 | 37471 ft | 449 kts | 102° |
| 2026-05-06 11:37 | -33.76859 | 125.39927 | 37474 ft | 449 kts | 102° |
| 2026-05-06 11:38 | -33.77929 | 125.47325 | 37476 ft | 449 kts | 102° |
| 2026-05-06 11:38 | -33.78997 | 125.54719 | 37476 ft | 449 kts | 102° |
| 2026-05-06 11:39 | -33.80058 | 125.62131 | 37473 ft | 449 kts | 102° |
| 2026-05-06 11:39 | -33.81102 | 125.69484 | 37471 ft | 449 kts | 102° |
| 2026-05-06 11:40 | -33.82152 | 125.76893 | 37476 ft | 449 kts | 102° |
| 2026-05-06 11:40 | -33.83205 | 125.84298 | 37478 ft | 449 kts | 102° |
| 2026-05-06 11:41 | -33.84251 | 125.91708 | 37475 ft | 449 kts | 102° |
| 2026-05-06 11:41 | -33.85292 | 125.99113 | 37463 ft | 449 kts | 102° |
| 2026-05-06 11:42 | -33.86325 | 126.06515 | 37460 ft | 448 kts | 102° |
| 2026-05-06 11:42 | -33.87352 | 126.13917 | 37463 ft | 448 kts | 102° |
| 2026-05-06 11:43 | -33.88381 | 126.21322 | 37461 ft | 449 kts | 102° |
| 2026-05-06 11:43 | -33.89400 | 126.28731 | 37464 ft | 449 kts | 102° |
| 2026-05-06 11:44 | -33.90918 | 126.39865 | 37471 ft | 449 kts | 102° |
| 2026-05-06 11:44 | -33.91917 | 126.47252 | 37459 ft | 449 kts | 102° |
| 2026-05-06 11:45 | -33.92924 | 126.54678 | 37459 ft | 449 kts | 102° |
| 2026-05-06 11:45 | -33.93928 | 126.62105 | 37459 ft | 449 kts | 102° |
| 2026-05-06 11:46 | -33.94934 | 126.69536 | 37459 ft | 450 kts | 102° |
| 2026-05-06 11:46 | -33.95925 | 126.76925 | 37464 ft | 450 kts | 102° |
| 2026-05-06 11:47 | -33.96913 | 126.84381 | 37455 ft | 450 kts | 101° |
| 2026-05-06 11:47 | -33.97893 | 126.91829 | 37454 ft | 450 kts | 101° |
| 2026-05-06 11:48 | -33.98875 | 126.99292 | 37460 ft | 450 kts | 101° |
| 2026-05-06 11:48 | -33.99855 | 127.06746 | 37456 ft | 451 kts | 101° |
| 2026-05-06 11:49 | -34.00830 | 127.14220 | 37455 ft | 451 kts | 101° |
| 2026-05-06 11:49 | -34.01792 | 127.21660 | 37460 ft | 451 kts | 101° |
| 2026-05-06 11:50 | -34.02756 | 127.29150 | 37457 ft | 451 kts | 101° |
| 2026-05-06 11:50 | -34.03719 | 127.36635 | 37454 ft | 452 kts | 101° |
| 2026-05-06 11:51 | -34.04670 | 127.44075 | 37453 ft | 452 kts | 101° |
| 2026-05-06 11:51 | -34.05622 | 127.51560 | 37454 ft | 452 kts | 101° |
| 2026-05-06 11:52 | -34.06572 | 127.59061 | 37452 ft | 452 kts | 101° |
| 2026-05-06 11:52 | -34.07517 | 127.66569 | 37451 ft | 452 kts | 101° |
| 2026-05-06 11:53 | -34.08458 | 127.74081 | 37454 ft | 453 kts | 101° |
| 2026-05-06 11:53 | -34.09402 | 127.81600 | 37449 ft | 453 kts | 101° |
| 2026-05-06 11:54 | -34.10339 | 127.89117 | 37444 ft | 453 kts | 101° |
| 2026-05-06 11:54 | -34.11255 | 127.96641 | 37443 ft | 453 kts | 101° |
| 2026-05-06 11:55 | -34.12170 | 128.04114 | 37435 ft | 453 kts | 101° |
| 2026-05-06 11:55 | -34.13095 | 128.11638 | 37433 ft | 453 kts | 101° |
| 2026-05-06 11:56 | -34.14014 | 128.19176 | 37431 ft | 454 kts | 101° |
| 2026-05-06 11:56 | -34.14922 | 128.26719 | 37427 ft | 454 kts | 100° |
| 2026-05-06 11:57 | -34.15830 | 128.34283 | 37429 ft | 455 kts | 100° |
| 2026-05-06 11:57 | -34.16740 | 128.41851 | 37429 ft | 456 kts | 100° |
| 2026-05-06 11:58 | -34.17635 | 128.49382 | 37441 ft | 456 kts | 100° |
| 2026-05-06 11:58 | -34.18528 | 128.56960 | 37442 ft | 456 kts | 100° |
| 2026-05-06 11:59 | -34.19425 | 128.64541 | 37441 ft | 456 kts | 100° |
| 2026-05-06 11:59 | -34.20311 | 128.72124 | 37439 ft | 456 kts | 100° |
| 2026-05-06 12:00 | -34.21193 | 128.79721 | 37431 ft | 456 kts | 100° |
| 2026-05-06 12:00 | -34.22082 | 128.87318 | 37445 ft | 456 kts | 100° |
| 2026-05-06 12:01 | -34.22952 | 128.94866 | 37436 ft | 456 kts | 100° |
| 2026-05-06 12:01 | -34.23817 | 129.02473 | 37433 ft | 457 kts | 100° |
| 2026-05-06 12:02 | -34.24682 | 129.10079 | 37429 ft | 457 kts | 100° |
| 2026-05-06 12:02 | -34.25545 | 129.17690 | 37423 ft | 457 kts | 100° |
| 2026-05-06 12:03 | -34.26406 | 129.25310 | 37427 ft | 458 kts | 100° |
| 2026-05-06 12:03 | -34.27258 | 129.32943 | 37435 ft | 458 kts | 100° |
| 2026-05-06 12:04 | -34.28104 | 129.40592 | 37428 ft | 458 kts | 99° |
| 2026-05-06 12:04 | -34.28945 | 129.48185 | 37425 ft | 459 kts | 100° |
| 2026-05-06 12:05 | -34.29791 | 129.55844 | 37426 ft | 459 kts | 99° |
| 2026-05-06 12:05 | -34.30633 | 129.63503 | 37424 ft | 460 kts | 99° |
| 2026-05-06 12:06 | -34.31463 | 129.71171 | 37431 ft | 460 kts | 99° |
| 2026-05-06 12:06 | -34.32294 | 129.78849 | 37428 ft | 460 kts | 99° |
| 2026-05-06 12:07 | -34.33123 | 129.86540 | 37416 ft | 460 kts | 99° |
| 2026-05-06 12:07 | -34.33941 | 129.94226 | 37416 ft | 461 kts | 99° |
| 2026-05-06 12:08 | -34.34756 | 130.01925 | 37419 ft | 461 kts | 99° |
| 2026-05-06 12:08 | -34.35561 | 130.09580 | 37427 ft | 461 kts | 99° |
| 2026-05-06 12:09 | -34.36368 | 130.17282 | 37419 ft | 462 kts | 99° |
| 2026-05-06 12:09 | -34.37174 | 130.24991 | 37417 ft | 462 kts | 99° |
| 2026-05-06 12:10 | -34.37977 | 130.32718 | 37413 ft | 462 kts | 99° |
| 2026-05-06 12:10 | -34.38775 | 130.40454 | 37410 ft | 463 kts | 99° |
| 2026-05-06 12:11 | -34.39568 | 130.48189 | 37423 ft | 463 kts | 99° |
| 2026-05-06 12:11 | -34.40346 | 130.55886 | 37415 ft | 463 kts | 99° |
| 2026-05-06 12:12 | -34.41124 | 130.63635 | 37412 ft | 463 kts | 99° |
| 2026-05-06 12:12 | -34.41900 | 130.71393 | 37408 ft | 464 kts | 99° |
| 2026-05-06 12:13 | -34.42672 | 130.79159 | 37409 ft | 464 kts | 99° |
| 2026-05-06 12:13 | -34.43438 | 130.86870 | 37409 ft | 464 kts | 99° |
| 2026-05-06 12:14 | -34.44206 | 130.94630 | 37412 ft | 464 kts | 99° |
| 2026-05-06 12:14 | -34.44970 | 131.02393 | 37408 ft | 464 kts | 98° |
| 2026-05-06 12:15 | -34.45724 | 131.10163 | 37406 ft | 464 kts | 98° |
| 2026-05-06 12:15 | -34.46476 | 131.17936 | 37401 ft | 464 kts | 98° |
| 2026-05-06 12:16 | -34.47219 | 131.25710 | 37400 ft | 465 kts | 98° |
| 2026-05-06 12:16 | -34.47956 | 131.33505 | 37413 ft | 465 kts | 98° |
| 2026-05-06 12:17 | -34.48689 | 131.41294 | 37402 ft | 465 kts | 98° |
| 2026-05-06 12:17 | -34.49298 | 131.47770 | 37397 ft | 465 kts | 98° |
| 2026-05-06 12:18 | -34.50144 | 131.56842 | 37397 ft | 466 kts | 98° |